Berkey, Ohio
Current Conditions -  °F | °C
As of 1:52 AM on Tuesday 21 Oct 2014 (Local Time) from KTOL Reporting Station
Overcast Overcast  
Wind Chill: 50°   Ceiling: 3400
Heat Index: 50°   Visibility: 10mi
Dew Point: 44°   Wind: 8mph
Humidity: 80%   Direction: 340°NNW
Pressure: 29.89"   Gusts: NA
Location:  41.72°N, 83.84°W
Report Text: KTOL 210552Z 34007KT 10SM BKN034 BKN045 OVC065 10/07 A2989 RMK AO2 SLP121 T01000067 10117 20094 53005 $
Loading
Personal Weather Stations






























Interactive Weather Map
Tropical Storm Tracking
New forecast layout! Learn more

10-Day Weather Forecast

Advertisements
Track Severe Weather on mobile